Time;durP1;ratioP1;P1;durP2;ratioP2;P2;SDS_P1;SDS_P2;PMS_P1;PMS_P2;Temp;Humidity;BMP_temperature;BMP_pressure;BME280_temperature;BME280_humidity;BME280_pressure;Samples;Min_cycle;Max_cycle;Signal;HPM_P1;HPM_P2
2023/06/12 00:02:25;;;;;;;8.02;7.03;;;;;;;;;;4951460;28;20479;-85
2023/06/12 00:05:20;;;;;;;9.63;7.30;;;;;;;;;;4984353;28;20491;-85
2023/06/12 00:08:05;;;;;;;10.00;7.53;;;;;;;;;;4959236;28;20039;-84
2023/06/12 00:10:51;;;;;;;11.38;7.10;;;;;;;;;;4969070;28;20042;-84
2023/06/12 00:13:36;;;;;;;12.55;7.93;;;;;;;;;;4969650;28;20050;-84
2023/06/12 00:16:25;;;;;;;10.32;7.43;;;;;;;;;;4949053;28;20050;-84
2023/06/12 00:19:11;;;;;;;14.40;7.38;;;;;;;;;;4967797;28;20410;-85
2023/06/12 00:21:57;;;;;;;14.55;7.35;;;;;;;;;;4976857;28;20042;-86
2023/06/12 00:24:42;;;;;;;11.75;7.90;;;;;;;;;;4971866;28;20412;-86
2023/06/12 00:27:28;;;;;;;12.48;7.70;;;;;;;;;;4949917;28;20034;-83
2023/06/12 00:30:14;;;;;;;11.30;7.70;;;;;;;;;;4972434;28;20042;-84
2023/06/12 00:33:00;;;;;;;10.20;7.45;;;;;;;;;;4971299;28;20054;-86
2023/06/12 00:35:47;;;;;;;16.35;7.88;;;;;;;;;;4949156;28;20047;-87
2023/06/12 00:38:34;;;;;;;8.98;7.68;;;;;;;;;;4950312;28;20035;-84
2023/06/12 00:41:20;;;;;;;11.07;8.15;;;;;;;;;;4953126;28;20051;-84
2023/06/12 00:44:06;;;;;;;17.67;8.00;;;;;;;;;;4952096;28;20035;-86
2023/06/12 00:46:55;;;;;;;11.30;8.27;;;;;;;;;;4939013;28;20051;-84
2023/06/12 00:49:42;;;;;;;10.88;8.50;;;;;;;;;;4952392;28;20031;-85
2023/06/12 00:52:34;;;;;;;17.42;8.52;;;;;;;;;;4928361;28;20047;-86
2023/06/12 00:55:20;;;;;;;14.02;8.70;;;;;;;;;;4942800;28;20039;-84
2023/06/12 00:58:06;;;;;;;14.73;8.57;;;;;;;;;;4953312;28;20043;-83
2023/06/12 01:00:54;;;;;;;10.07;7.90;;;;;;;;;;4942442;28;20043;-86
2023/06/12 01:03:40;;;;;;;12.50;8.60;;;;;;;;;;4944563;28;20050;-85
2023/06/12 01:06:35;;;;;;;15.20;8.38;;;;;;;;;;4947621;28;20035;-85
2023/06/12 01:09:33;;;;;;;10.88;7.85;;;;;;;;;;4943530;28;20043;-84
2023/06/12 01:12:20;;;;;;;13.75;7.95;;;;;;;;;;4951709;28;20047;-84
2023/06/12 01:15:06;;;;;;;11.18;7.80;;;;;;;;;;4940261;28;20043;-85
2023/06/12 01:17:58;;;;;;;12.82;7.50;;;;;;;;;;4942315;28;20047;-86
2023/06/12 01:20:46;;;;;;;14.88;8.88;;;;;;;;;;4932500;29;20047;-84
2023/06/12 01:23:58;;;;;;;10.10;7.90;;;;;;;;;;4936145;28;20039;-86
2023/06/12 01:27:07;;;;;;;13.75;7.85;;;;;;;;;;4942131;28;20036;-85
2023/06/12 01:30:27;;;;;;;11.05;8.02;;;;;;;;;;4939957;29;20417;-84
2023/06/12 01:33:18;;;;;;;38.28;8.18;;;;;;;;;;4949355;28;20047;-88
2023/06/12 01:36:11;;;;;;;11.45;8.38;;;;;;;;;;4949153;28;20043;-87
2023/06/12 01:39:04;;;;;;;12.83;8.83;;;;;;;;;;4947418;28;20488;-85
2023/06/12 01:41:50;;;;;;;27.90;17.20;;;;;;;;;;4966190;28;20031;-85
2023/06/12 01:44:43;;;;;;;16.50;11.13;;;;;;;;;;4971614;28;20047;-86
2023/06/12 01:47:29;;;;;;;87.80;14.00;;;;;;;;;;4978004;28;20047;-86
2023/06/12 01:50:19;;;;;;;34.55;22.10;;;;;;;;;;4957613;28;20054;-86
2023/06/12 01:53:05;;;;;;;23.98;11.57;;;;;;;;;;4964737;28;20042;-85
2023/06/12 01:56:01;;;;;;;14.10;8.73;;;;;;;;;;4961627;28;20047;-85
2023/06/12 01:59:04;;;;;;;13.50;10.52;;;;;;;;;;4965993;28;20066;-87
2023/06/12 02:01:56;;;;;;;78.18;10.80;;;;;;;;;;4971812;28;20050;-86
2023/06/12 02:04:47;;;;;;;10.25;6.70;;;;;;;;;;4965346;28;20039;-86
2023/06/12 02:07:40;;;;;;;14.60;7.93;;;;;;;;;;4945026;28;20121;-87
2023/06/12 02:19:16;;;;;;;278.63;24.30;;;;;;;;;;4920838;29;20048;-87
2023/06/12 02:22:35;;;;;;;9.48;5.30;;;;;;;;;;4914281;29;20044;-85
2023/06/12 02:25:24;;;;;;;111.22;20.90;;;;;;;;;;4922634;29;20055;-88
2023/06/12 02:28:14;;;;;;;383.48;56.08;;;;;;;;;;4920908;29;20032;-89
2023/06/12 02:31:19;;;;;;;486.67;24.33;;;;;;;;;;4920401;29;20394;-89
2023/06/12 02:34:15;;;;;;;180.10;15.35;;;;;;;;;;4906372;29;20048;-89
2023/06/12 02:37:24;;;;;;;;;;;;;;;;;;;;;
2023/06/12 02:40:24;;;;;;;190.68;11.80;;;;;;;;;;4920923;29;20051;-87
2023/06/12 02:43:14;;;;;;;3.55;2.33;;;;;;;;;;4921471;29;20043;-88
2023/06/12 02:46:22;;;;;;;3.47;3.08;;;;;;;;;;4915304;29;20051;-89
2023/06/12 02:49:17;;;;;;;1.98;1.50;;;;;;;;;;4920586;29;20043;-88
2023/06/12 02:52:11;;;;;;;4.03;2.25;;;;;;;;;;4919696;29;20044;-89
2023/06/12 02:54:59;;;;;;;6.45;2.10;;;;;;;;;;4933107;29;20044;-89
2023/06/12 02:57:55;;;;;;;6.95;3.85;;;;;;;;;;4919194;29;20409;-89
2023/06/12 03:00:50;;;;;;;5.38;3.45;;;;;;;;;;4918671;29;20040;-88
2023/06/12 03:03:52;;;;;;;7.32;3.55;;;;;;;;;;4935587;29;20048;-89
2023/06/12 03:06:47;;;;;;;6.45;3.70;;;;;;;;;;4919594;29;20044;-86
2023/06/12 03:09:45;;;;;;;6.82;4.20;;;;;;;;;;4896132;29;20052;-91
2023/06/12 03:12:54;;;;;;;6.00;3.80;;;;;;;;;;4934147;29;20044;-90
2023/06/12 03:16:00;;;;;;;;;;;;;;;;;;;;;
2023/06/12 03:18:56;;;;;;;6.47;4.33;;;;;;;;;;4929767;29;20501;-90
2023/06/12 03:21:50;;;;;;;5.75;4.50;;;;;;;;;;4909203;29;20678;-88
2023/06/12 03:24:43;;;;;;;8.38;4.50;;;;;;;;;;4920603;29;20052;-88
2023/06/12 03:27:59;;;;;;;6.97;4.25;;;;;;;;;;4920857;29;20032;-88
2023/06/12 03:31:26;;;;;;;7.00;4.63;;;;;;;;;;4926087;29;20039;-88
2023/06/12 03:34:52;;;;;;;4.90;4.13;;;;;;;;;;4918606;29;20043;-87
2023/06/12 03:38:34;;;;;;;;;;;;;;;;;;;;;
2023/06/12 03:42:08;;;;;;;29.85;8.85;;;;;;;;;;4920628;29;20404;-88
2023/06/12 03:46:07;;;;;;;13.32;5.07;;;;;;;;;;4919391;29;20040;-89
2023/06/12 03:50:21;;;;;;;;;;;;;;;;;;;;;
2023/06/12 04:06:35;;;;;;;3.95;2.88;;;;;;;;;;4887310;29;20100;-90
2023/06/12 04:11:01;;;;;;;;;;;;;;;;;;;;;
2023/06/12 08:00:13;;;;;;;3.25;2.00;;;;;;;;;;5836653;23;20059;-84
2023/06/12 08:03:08;;;;;;;2.70;2.20;;;;;;;;;;4953132;29;20494;-77
2023/06/12 08:06:00;;;;;;;2.85;2.30;;;;;;;;;;4945319;29;20047;-77
2023/06/12 08:08:47;;;;;;;2.80;2.30;;;;;;;;;;4946106;28;20059;-79
2023/06/12 08:11:33;;;;;;;2.45;2.22;;;;;;;;;;4959183;28;20047;-79
2023/06/12 08:14:18;;;;;;;2.03;1.77;;;;;;;;;;4945165;29;20043;-77
2023/06/12 08:17:04;;;;;;;2.30;2.00;;;;;;;;;;4953112;29;20510;-79
2023/06/12 08:19:50;;;;;;;1.90;1.75;;;;;;;;;;4953189;29;20679;-78
2023/06/12 08:22:39;;;;;;;2.13;1.90;;;;;;;;;;4944854;29;20494;-79
2023/06/12 08:25:25;;;;;;;4.45;2.00;;;;;;;;;;4954701;29;20393;-79
2023/06/12 08:28:10;;;;;;;2.05;1.83;;;;;;;;;;4955225;29;20055;-79
2023/06/12 08:30:57;;;;;;;2.92;2.30;;;;;;;;;;4946887;29;20047;-79
2023/06/12 08:33:46;;;;;;;4.00;2.60;;;;;;;;;;4947842;29;20047;-79
2023/06/12 08:36:35;;;;;;;2.10;1.90;;;;;;;;;;4947950;29;20397;-78
2023/06/12 08:39:20;;;;;;;2.22;1.80;;;;;;;;;;4947683;29;20047;-78
2023/06/12 08:42:14;;;;;;;1.50;1.40;;;;;;;;;;4950511;28;20051;-79
2023/06/12 08:45:05;;;;;;;3.80;2.03;;;;;;;;;;4952912;28;20485;-79
2023/06/12 08:47:52;;;;;;;1.77;1.58;;;;;;;;;;4958840;29;20043;-79
2023/06/12 08:50:36;;;;;;;2.50;1.77;;;;;;;;;;4961389;29;20047;-78
2023/06/12 08:53:22;;;;;;;2.10;1.85;;;;;;;;;;4961815;29;20039;-78
2023/06/12 08:56:10;;;;;;;2.35;2.03;;;;;;;;;;4976305;29;20047;-77
2023/06/12 08:58:57;;;;;;;3.15;1.92;;;;;;;;;;4970475;29;20044;-78
2023/06/12 09:01:45;;;;;;;2.33;2.00;;;;;;;;;;4965596;29;20405;-78
2023/06/12 09:04:48;;;;;;;2.35;2.08;;;;;;;;;;4957905;29;20048;-78
2023/06/12 09:07:38;;;;;;;2.20;2.00;;;;;;;;;;4958330;29;20047;-79
2023/06/12 09:10:25;;;;;;;2.30;2.10;;;;;;;;;;4958829;29;20055;-79
2023/06/12 09:13:10;;;;;;;4.03;2.80;;;;;;;;;;4957498;29;20044;-78
2023/06/12 09:15:56;;;;;;;2.40;2.20;;;;;;;;;;4958038;29;20051;-79
2023/06/12 09:18:52;;;;;;;3.80;3.40;;;;;;;;;;4957683;29;20040;-79
2023/06/12 09:21:38;;;;;;;3.97;3.55;;;;;;;;;;4957628;29;20047;-82
2023/06/12 09:24:23;;;;;;;6.15;4.40;;;;;;;;;;4957698;29;20039;-80
2023/06/12 09:27:11;;;;;;;4.15;3.42;;;;;;;;;;4958381;29;20043;-82
2023/06/12 09:29:59;;;;;;;3.60;3.30;;;;;;;;;;4957423;29;20393;-83
2023/06/12 09:32:44;;;;;;;3.42;2.70;;;;;;;;;;4959415;29;20055;-81
2023/06/12 09:35:30;;;;;;;3.67;2.60;;;;;;;;;;4967867;29;20044;-81
2023/06/12 09:38:15;;;;;;;3.40;2.42;;;;;;;;;;4957142;29;20040;-77
2023/06/12 09:41:03;;;;;;;5.35;2.30;;;;;;;;;;4957400;29;20050;-77
2023/06/12 09:43:52;;;;;;;2.47;2.28;;;;;;;;;;4964237;28;20043;-78
2023/06/12 09:46:38;;;;;;;3.40;2.70;;;;;;;;;;4958111;29;20051;-78
2023/06/12 09:49:24;;;;;;;2.60;2.40;;;;;;;;;;4957459;29;20409;-77
2023/06/12 09:52:10;;;;;;;4.80;2.25;;;;;;;;;;4959118;28;20061;-76
2023/06/12 09:54:56;;;;;;;6.78;2.60;;;;;;;;;;4963192;29;20047;-76
2023/06/12 09:57:48;;;;;;;4.65;1.90;;;;;;;;;;4965093;29;20047;-76
2023/06/12 10:00:35;;;;;;;1.63;1.52;;;;;;;;;;4956201;29;20468;-77
2023/06/12 10:03:22;;;;;;;2.65;1.63;;;;;;;;;;4956781;29;20489;-78
2023/06/12 10:06:12;;;;;;;2.45;2.10;;;;;;;;;;4965537;29;20048;-76
2023/06/12 10:08:58;;;;;;;2.45;1.73;;;;;;;;;;4958713;29;20501;-77
2023/06/12 10:11:45;;;;;;;3.05;1.70;;;;;;;;;;4955920;29;20055;-79
2023/06/12 10:14:30;;;;;;;2.25;1.73;;;;;;;;;;4954567;29;20039;-78
2023/06/12 10:17:16;;;;;;;2.58;2.00;;;;;;;;;;4954311;29;20047;-78
2023/06/12 10:20:04;;;;;;;7.35;2.38;;;;;;;;;;4957667;29;20051;-78
2023/06/12 10:22:51;;;;;;;2.10;1.67;;;;;;;;;;4963268;29;20043;-77
2023/06/12 10:25:36;;;;;;;2.58;1.73;;;;;;;;;;4943188;29;20051;-77
2023/06/12 10:28:22;;;;;;;3.30;1.67;;;;;;;;;;4960213;29;20059;-79
2023/06/12 10:31:12;;;;;;;8.90;3.97;;;;;;;;;;4954056;29;20047;-78
2023/06/12 10:34:02;;;;;;;1.92;1.58;;;;;;;;;;4951909;28;20393;-78
2023/06/12 10:36:49;;;;;;;2.15;1.50;;;;;;;;;;4968986;29;20036;-77
2023/06/12 10:39:34;;;;;;;2.58;1.88;;;;;;;;;;4956102;29;20044;-81
2023/06/12 10:42:21;;;;;;;1.70;1.60;;;;;;;;;;4959817;29;20486;-78
2023/06/12 10:45:19;;;;;;;1.85;1.63;;;;;;;;;;4968313;29;20043;-77
2023/06/12 10:48:05;;;;;;;1.70;1.60;;;;;;;;;;4957123;29;20417;-78
2023/06/12 10:50:53;;;;;;;1.98;1.60;;;;;;;;;;4963355;29;20491;-77
2023/06/12 10:53:44;;;;;;;2.40;2.00;;;;;;;;;;4959985;29;20548;-78
2023/06/12 10:56:30;;;;;;;2.67;2.00;;;;;;;;;;4956366;29;20051;-79
2023/06/12 10:59:15;;;;;;;2.80;2.05;;;;;;;;;;4956915;29;20405;-78
2023/06/12 11:02:04;;;;;;;3.42;2.00;;;;;;;;;;4961356;29;20055;-78
2023/06/12 11:04:50;;;;;;;10.27;5.45;;;;;;;;;;4955909;28;20047;-79
2023/06/12 11:07:36;;;;;;;14.07;8.57;;;;;;;;;;4956232;29;20059;-78
2023/06/12 11:10:22;;;;;;;5.43;3.28;;;;;;;;;;4956742;29;20043;-78
2023/06/12 11:13:07;;;;;;;13.20;7.78;;;;;;;;;;4955388;29;20114;-78
2023/06/12 11:15:53;;;;;;;2.70;2.40;;;;;;;;;;4954264;29;20047;-79
2023/06/12 11:18:38;;;;;;;2.25;1.80;;;;;;;;;;4955931;29;20043;-78
2023/06/12 11:21:23;;;;;;;4.57;3.08;;;;;;;;;;4955751;29;20402;-78
2023/06/12 11:24:13;;;;;;;6.82;4.28;;;;;;;;;;4954501;29;20039;-80
2023/06/12 11:27:00;;;;;;;5.38;3.30;;;;;;;;;;4955702;29;20050;-77
2023/06/12 11:29:46;;;;;;;5.53;3.45;;;;;;;;;;4955316;29;20039;-80
2023/06/12 11:32:32;;;;;;;6.82;3.53;;;;;;;;;;4955605;28;20051;-78
2023/06/12 11:35:18;;;;;;;2.88;2.10;;;;;;;;;;4955446;29;20047;-80
2023/06/12 11:38:05;;;;;;;4.32;2.60;;;;;;;;;;4954362;29;20478;-79
2023/06/12 11:40:53;;;;;;;12.20;7.80;;;;;;;;;;4954979;29;20054;-79
2023/06/12 11:43:42;;;;;;;40.55;25.55;;;;;;;;;;4955300;29;20043;-78
2023/06/12 11:46:29;;;;;;;12.00;8.73;;;;;;;;;;4955404;29;20043;-80
2023/06/12 11:49:15;;;;;;;18.50;12.23;;;;;;;;;;4955277;29;20043;-78
2023/06/12 11:52:00;;;;;;;28.17;12.15;;;;;;;;;;4955040;29;20043;-79
2023/06/12 11:54:56;;;;;;;8.70;4.85;;;;;;;;;;4955346;29;20051;-80
2023/06/12 11:57:51;;;;;;;22.35;11.43;;;;;;;;;;4955271;29;20043;-78
2023/06/12 12:00:39;;;;;;;9.73;4.32;;;;;;;;;;4955105;29;20051;-79
2023/06/12 12:03:25;;;;;;;4.47;3.00;;;;;;;;;;4955348;29;20047;-79
2023/06/12 12:06:11;;;;;;;3.50;2.10;;;;;;;;;;4955248;29;20039;-79
2023/06/12 12:08:57;;;;;;;3.00;2.30;;;;;;;;;;4956128;29;20052;-80
2023/06/12 12:11:42;;;;;;;4.05;2.38;;;;;;;;;;4955322;29;20051;-78
2023/06/12 12:14:28;;;;;;;2.80;2.50;;;;;;;;;;4955467;28;20055;-77
2023/06/12 12:17:15;;;;;;;3.28;2.97;;;;;;;;;;4958597;29;20490;-78
2023/06/12 12:20:04;;;;;;;4.47;3.60;;;;;;;;;;4958635;29;20051;-78
2023/06/12 12:23:02;;;;;;;3.03;2.72;;;;;;;;;;4959598;29;20051;-78
2023/06/12 12:25:47;;;;;;;9.98;7.18;;;;;;;;;;4958914;29;20047;-79
2023/06/12 12:28:33;;;;;;;4.47;3.00;;;;;;;;;;4958509;29;20039;-80
2023/06/12 12:31:18;;;;;;;3.45;2.85;;;;;;;;;;4958416;29;20043;-79
2023/06/12 12:34:04;;;;;;;4.32;3.60;;;;;;;;;;4958776;29;20494;-77
2023/06/12 12:36:52;;;;;;;5.80;3.90;;;;;;;;;;4959318;29;20481;-79
2023/06/12 12:39:45;;;;;;;5.07;3.50;;;;;;;;;;4957336;29;20089;-78
2023/06/12 12:42:47;;;;;;;6.38;5.35;;;;;;;;;;4944456;29;20052;-79
2023/06/12 12:45:47;;;;;;;6.38;4.72;;;;;;;;;;4954113;29;20051;-79
2023/06/12 12:48:39;;;;;;;14.15;8.02;;;;;;;;;;4955073;29;20497;-79
2023/06/12 12:51:30;;;;;;;16.45;9.80;;;;;;;;;;4956065;28;20047;-79
2023/06/12 12:54:21;;;;;;;9.75;6.65;;;;;;;;;;4948476;28;20054;-82
2023/06/12 12:57:08;;;;;;;8.63;6.40;;;;;;;;;;4956982;29;20397;-83
2023/06/12 12:59:54;;;;;;;9.73;7.47;;;;;;;;;;4957126;29;20055;-81
2023/06/12 13:02:41;;;;;;;13.90;8.57;;;;;;;;;;4956967;29;20047;-81
2023/06/12 13:05:26;;;;;;;10.75;8.30;;;;;;;;;;4956642;29;20051;-81
2023/06/12 13:08:16;;;;;;;10.73;7.78;;;;;;;;;;4963301;28;20417;-84
2023/06/12 13:11:02;;;;;;;11.02;8.48;;;;;;;;;;4956416;29;20043;-82
2023/06/12 13:13:47;;;;;;;13.55;8.98;;;;;;;;;;4957647;29;20043;-83
2023/06/12 13:16:32;;;;;;;10.02;7.95;;;;;;;;;;4956790;29;20389;-80
2023/06/12 13:19:18;;;;;;;11.23;8.30;;;;;;;;;;4959684;29;20047;-83
2023/06/12 13:22:04;;;;;;;12.95;8.88;;;;;;;;;;4958498;29;20044;-83
2023/06/12 13:24:49;;;;;;;13.32;9.15;;;;;;;;;;4956682;29;20051;-83
2023/06/12 13:27:35;;;;;;;13.98;9.45;;;;;;;;;;4958140;28;20047;-83
2023/06/12 13:30:20;;;;;;;13.50;9.85;;;;;;;;;;4958869;29;20043;-82
2023/06/12 13:33:06;;;;;;;14.07;8.55;;;;;;;;;;4957696;29;20059;-83
2023/06/12 13:35:51;;;;;;;15.15;9.85;;;;;;;;;;4957311;29;20043;-85
2023/06/12 13:38:37;;;;;;;16.85;10.90;;;;;;;;;;4948840;28;20058;-82
2023/06/12 13:41:23;;;;;;;18.92;11.82;;;;;;;;;;4956940;29;20043;-81
2023/06/12 13:44:08;;;;;;;23.05;12.60;;;;;;;;;;4956411;29;20050;-80
2023/06/12 13:46:54;;;;;;;19.65;10.75;;;;;;;;;;4957235;29;20051;-80
2023/06/12 13:49:40;;;;;;;20.90;12.15;;;;;;;;;;4957188;29;20051;-80
2023/06/12 13:52:25;;;;;;;22.70;12.82;;;;;;;;;;4958534;29;20401;-86
2023/06/12 13:55:11;;;;;;;23.20;12.75;;;;;;;;;;4951097;28;20055;-85
2023/06/12 13:57:57;;;;;;;19.30;12.20;;;;;;;;;;4958980;29;20047;-83
2023/06/12 14:00:42;;;;;;;20.40;13.23;;;;;;;;;;4960028;29;20469;-84
2023/06/12 14:03:27;;;;;;;18.30;10.63;;;;;;;;;;4958253;29;20047;-83
2023/06/12 14:06:13;;;;;;;12.63;7.60;;;;;;;;;;4957023;29;20051;-84
2023/06/12 14:09:00;;;;;;;13.00;8.80;;;;;;;;;;4960018;29;20051;-83
2023/06/12 14:11:45;;;;;;;16.45;9.32;;;;;;;;;;4956761;29;20401;-84
2023/06/12 14:14:31;;;;;;;13.20;8.75;;;;;;;;;;4956919;29;20044;-83
2023/06/12 14:17:17;;;;;;;14.90;9.20;;;;;;;;;;4943228;29;20047;-84
2023/06/12 14:20:07;;;;;;;15.25;9.15;;;;;;;;;;4958618;29;20051;-84
2023/06/12 14:23:04;;;;;;;13.75;9.15;;;;;;;;;;4950832;28;20055;-80
2023/06/12 14:25:51;;;;;;;14.60;8.90;;;;;;;;;;4958142;29;20047;-80
2023/06/12 14:28:37;;;;;;;14.82;8.40;;;;;;;;;;4956629;29;20409;-81
2023/06/12 14:31:25;;;;;;;10.25;7.05;;;;;;;;;;4956462;29;20051;-81
2023/06/12 14:34:13;;;;;;;10.55;6.78;;;;;;;;;;4954379;29;20397;-82
2023/06/12 14:36:58;;;;;;;9.10;5.97;;;;;;;;;;4947743;28;20047;-82
2023/06/12 14:39:43;;;;;;;8.85;5.25;;;;;;;;;;4955244;29;20043;-81
2023/06/12 14:42:29;;;;;;;8.40;5.18;;;;;;;;;;4955499;29;20055;-84
2023/06/12 14:45:21;;;;;;;5.78;4.00;;;;;;;;;;4954211;29;20394;-82
2023/06/12 14:48:10;;;;;;;7.22;4.90;;;;;;;;;;4957612;29;20051;-82
2023/06/12 14:51:05;;;;;;;6.25;4.22;;;;;;;;;;4956111;29;20047;-83
2023/06/12 14:53:56;;;;;;;5.80;3.90;;;;;;;;;;4947130;28;20501;-83
2023/06/12 14:56:46;;;;;;;5.05;3.47;;;;;;;;;;4954066;29;20051;-84
2023/06/12 14:59:38;;;;;;;5.45;3.60;;;;;;;;;;4955734;29;20043;-82
2023/06/12 15:02:35;;;;;;;6.30;3.45;;;;;;;;;;4953974;29;20486;-84
2023/06/12 15:05:26;;;;;;;7.80;3.58;;;;;;;;;;4956397;29;20059;-84
2023/06/12 15:08:14;;;;;;;6.43;4.28;;;;;;;;;;4960380;29;20055;-86
2023/06/12 15:11:07;;;;;;;9.63;4.22;;;;;;;;;;4955511;28;20043;-83
2023/06/12 15:14:01;;;;;;;6.32;3.95;;;;;;;;;;4947487;28;20063;-84
2023/06/12 15:16:53;;;;;;;5.93;3.83;;;;;;;;;;4957252;29;20047;-84
2023/06/12 15:19:38;;;;;;;7.00;4.18;;;;;;;;;;4957883;29;20047;-84
2023/06/12 15:22:23;;;;;;;10.57;3.97;;;;;;;;;;4957350;29;20051;-83
2023/06/12 15:25:09;;;;;;;6.53;4.38;;;;;;;;;;4959855;29;20047;-85
2023/06/12 15:27:55;;;;;;;9.63;5.32;;;;;;;;;;4957497;29;20043;-83
2023/06/12 15:30:40;;;;;;;10.65;5.97;;;;;;;;;;4955195;29;20051;-82
2023/06/12 15:33:26;;;;;;;9.80;5.68;;;;;;;;;;4955228;29;20043;-84
2023/06/12 15:36:11;;;;;;;13.52;6.43;;;;;;;;;;4955672;29;20043;-85
2023/06/12 15:39:01;;;;;;;13.77;7.25;;;;;;;;;;4948085;29;20485;-83
2023/06/12 15:41:51;;;;;;;18.73;9.05;;;;;;;;;;4960912;29;20055;-83
2023/06/12 15:44:36;;;;;;;15.55;8.20;;;;;;;;;;4947253;29;20474;-82
2023/06/12 15:47:22;;;;;;;27.88;11.35;;;;;;;;;;4954793;29;20429;-84
2023/06/12 15:50:08;;;;;;;28.60;11.45;;;;;;;;;;4955451;28;20501;-83
2023/06/12 15:52:53;;;;;;;32.15;12.70;;;;;;;;;;4959226;29;20055;-84
2023/06/12 15:55:38;;;;;;;29.95;13.00;;;;;;;;;;4959133;29;20039;-82
2023/06/12 15:58:24;;;;;;;31.63;14.00;;;;;;;;;;4958216;29;20047;-82
2023/06/12 16:01:10;;;;;;;36.35;15.45;;;;;;;;;;4957104;29;20051;-83
2023/06/12 16:03:56;;;;;;;32.80;15.55;;;;;;;;;;4956628;29;20043;-84
2023/06/12 16:06:41;;;;;;;35.28;16.48;;;;;;;;;;4957146;29;20051;-83
2023/06/12 16:09:26;;;;;;;35.42;16.73;;;;;;;;;;4957180;29;20051;-83
2023/06/12 16:12:12;;;;;;;38.88;18.58;;;;;;;;;;4963868;28;20051;-83
2023/06/12 16:14:57;;;;;;;41.42;18.58;;;;;;;;;;4963722;28;20493;-84
2023/06/12 16:17:42;;;;;;;45.80;19.95;;;;;;;;;;4958735;29;20485;-82
2023/06/12 16:20:28;;;;;;;39.33;19.17;;;;;;;;;;4958375;29;20051;-84
2023/06/12 16:23:15;;;;;;;52.67;23.48;;;;;;;;;;4958667;29;20054;-83
2023/06/12 16:26:01;;;;;;;44.33;22.40;;;;;;;;;;4958928;29;20043;-84
2023/06/12 16:28:47;;;;;;;43.35;21.65;;;;;;;;;;4963131;28;20055;-83
2023/06/12 16:31:32;;;;;;;58.97;26.90;;;;;;;;;;4956941;29;20051;-84
2023/06/12 16:34:18;;;;;;;50.03;23.42;;;;;;;;;;4957358;29;20413;-84
2023/06/12 16:37:03;;;;;;;49.08;23.88;;;;;;;;;;4958154;29;20043;-83
2023/06/12 16:39:50;;;;;;;54.05;25.27;;;;;;;;;;4956057;29;20051;-82
2023/06/12 16:42:36;;;;;;;60.45;26.73;;;;;;;;;;4958021;29;20482;-80
2023/06/12 16:45:21;;;;;;;52.40;26.50;;;;;;;;;;4957883;29;20386;-80
2023/06/12 16:48:07;;;;;;;56.22;25.50;;;;;;;;;;4958444;29;20047;-81
2023/06/12 16:50:52;;;;;;;59.53;27.80;;;;;;;;;;4957477;29;20434;-81
2023/06/12 16:53:39;;;;;;;57.45;28.40;;;;;;;;;;4957790;29;20063;-80
2023/06/12 16:56:24;;;;;;;62.10;28.73;;;;;;;;;;4950038;28;20051;-79
2023/06/12 16:59:10;;;;;;;62.65;30.27;;;;;;;;;;4957892;29;20051;-80
2023/06/12 17:02:08;;;;;;;62.10;29.48;;;;;;;;;;4957312;28;20047;-83
2023/06/12 17:04:54;;;;;;;66.82;30.13;;;;;;;;;;4957815;29;20039;-83
2023/06/12 17:07:40;;;;;;;68.65;30.55;;;;;;;;;;4957628;29;20051;-82
2023/06/12 17:10:26;;;;;;;65.03;30.98;;;;;;;;;;4957714;29;20047;-82
2023/06/12 17:13:11;;;;;;;72.22;31.70;;;;;;;;;;4957594;29;20059;-82
2023/06/12 17:15:57;;;;;;;72.32;31.02;;;;;;;;;;4957433;29;20051;-82
2023/06/12 17:18:42;;;;;;;71.40;32.00;;;;;;;;;;4956990;29;20051;-82
2023/06/12 17:21:28;;;;;;;68.43;31.05;;;;;;;;;;4958526;29;20059;-82
2023/06/12 17:24:13;;;;;;;71.35;32.90;;;;;;;;;;4963837;29;20047;-82
2023/06/12 17:26:59;;;;;;;63.25;30.42;;;;;;;;;;4950462;29;20393;-84
2023/06/12 17:29:45;;;;;;;71.82;32.50;;;;;;;;;;4963543;29;20044;-84
2023/06/12 17:32:32;;;;;;;73.80;31.75;;;;;;;;;;4963943;29;20047;-86
2023/06/12 17:35:19;;;;;;;65.18;31.95;;;;;;;;;;4956705;28;20050;-84
2023/06/12 17:38:04;;;;;;;63.78;30.95;;;;;;;;;;4957075;28;20047;-85
2023/06/12 17:40:50;;;;;;;60.15;30.27;;;;;;;;;;4964904;29;20059;-85
2023/06/12 17:43:35;;;;;;;66.80;30.48;;;;;;;;;;4970668;28;20079;-85
2023/06/12 17:46:21;;;;;;;65.90;32.50;;;;;;;;;;4950711;28;20050;-85
2023/06/12 17:49:06;;;;;;;64.13;30.13;;;;;;;;;;4959915;29;20047;-85
2023/06/12 17:51:52;;;;;;;68.18;31.35;;;;;;;;;;4968398;29;20477;-83
2023/06/12 17:54:38;;;;;;;64.53;29.48;;;;;;;;;;4964772;29;20051;-85
2023/06/12 17:57:23;;;;;;;65.18;30.58;;;;;;;;;;4944391;29;20047;-85
2023/06/12 18:00:10;;;;;;;72.40;34.90;;;;;;;;;;4956670;29;20047;-80
2023/06/12 18:02:56;;;;;;;79.05;38.00;;;;;;;;;;4956951;29;20401;-81
2023/06/12 18:05:42;;;;;;;71.28;33.22;;;;;;;;;;4957172;29;20047;-83
2023/06/12 18:08:29;;;;;;;65.22;30.35;;;;;;;;;;4958219;29;20047;-82
2023/06/12 18:11:14;;;;;;;63.83;32.15;;;;;;;;;;4956651;29;20118;-82
2023/06/12 18:14:00;;;;;;;66.32;31.60;;;;;;;;;;4956621;28;20489;-81
2023/06/12 18:16:45;;;;;;;62.65;31.48;;;;;;;;;;4956698;29;20039;-83
2023/06/12 18:19:31;;;;;;;57.30;28.13;;;;;;;;;;4960674;29;20039;-81
2023/06/12 18:22:16;;;;;;;57.25;26.25;;;;;;;;;;4957180;29;20055;-80
2023/06/12 18:25:02;;;;;;;46.92;24.50;;;;;;;;;;4956446;29;20047;-80
2023/06/12 18:27:50;;;;;;;47.55;23.00;;;;;;;;;;4955735;29;20393;-79
2023/06/12 18:30:36;;;;;;;40.17;21.73;;;;;;;;;;4962156;28;20043;-80
2023/06/12 18:33:22;;;;;;;44.47;22.67;;;;;;;;;;4956352;29;20051;-79
2023/06/12 18:36:09;;;;;;;46.60;22.90;;;;;;;;;;4958688;29;20055;-81
2023/06/12 18:38:54;;;;;;;39.45;22.50;;;;;;;;;;4956530;29;20069;-82
2023/06/12 18:41:40;;;;;;;48.00;23.00;;;;;;;;;;4956158;29;20043;-83
2023/06/12 18:44:25;;;;;;;48.97;25.08;;;;;;;;;;4961061;28;20055;-83
2023/06/12 18:47:11;;;;;;;46.30;25.80;;;;;;;;;;4947810;28;20039;-83
2023/06/12 18:49:55;;;;;;;52.63;25.38;;;;;;;;;;4956077;29;20399;-82
2023/06/12 18:52:41;;;;;;;49.83;24.73;;;;;;;;;;4955850;29;20047;-80
2023/06/12 18:55:26;;;;;;;53.97;25.73;;;;;;;;;;4962217;28;20043;-82
2023/06/12 18:58:12;;;;;;;46.63;24.63;;;;;;;;;;4955771;29;20043;-83
2023/06/12 19:00:57;;;;;;;51.30;24.65;;;;;;;;;;4944589;29;20055;-81
2023/06/12 19:03:42;;;;;;;52.20;25.42;;;;;;;;;;4955599;29;20051;-82
2023/06/12 19:06:28;;;;;;;52.63;24.48;;;;;;;;;;4954638;29;20055;-81
2023/06/12 19:09:14;;;;;;;50.85;24.38;;;;;;;;;;4955590;29;20044;-80
2023/06/12 19:11:59;;;;;;;52.83;25.58;;;;;;;;;;4955371;29;20047;-80
2023/06/12 19:14:45;;;;;;;49.05;25.58;;;;;;;;;;4955360;29;20047;-80
2023/06/12 19:17:30;;;;;;;50.13;25.17;;;;;;;;;;4955902;29;20047;-80
2023/06/12 19:20:16;;;;;;;55.92;25.83;;;;;;;;;;4955505;29;20047;-82
2023/06/12 19:23:04;;;;;;;48.75;24.63;;;;;;;;;;4955678;29;20484;-80
2023/06/12 19:25:53;;;;;;;58.10;25.65;;;;;;;;;;4955567;28;20486;-81
2023/06/12 19:28:38;;;;;;;50.47;24.92;;;;;;;;;;4955714;29;20493;-79
2023/06/12 19:31:24;;;;;;;52.05;25.73;;;;;;;;;;4955494;29;20043;-81
2023/06/12 19:34:10;;;;;;;54.05;26.05;;;;;;;;;;4955539;29;20055;-82
2023/06/12 19:36:55;;;;;;;53.10;27.42;;;;;;;;;;4941126;29;20047;-82
2023/06/12 19:39:41;;;;;;;57.28;26.08;;;;;;;;;;4956088;29;20039;-81
2023/06/12 19:42:26;;;;;;;57.17;26.90;;;;;;;;;;4955091;29;20055;-82
2023/06/12 19:48:43;;;;;;;54.17;26.65;;;;;;;;;;4990043;23;20058;-82
2023/06/12 19:51:32;;;;;;;55.33;26.95;;;;;;;;;;4955162;29;20494;-83
2023/06/12 19:54:19;;;;;;;50.30;25.75;;;;;;;;;;4955458;29;20039;-83
2023/06/12 19:57:33;;;;;;;50.38;25.88;;;;;;;;;;4955107;29;20051;-82
2023/06/12 20:00:22;;;;;;;51.50;26.38;;;;;;;;;;4955662;29;20047;-83
2023/06/12 20:03:11;;;;;;;50.45;26.13;;;;;;;;;;4955749;29;20043;-81
2023/06/12 20:06:05;;;;;;;57.08;25.67;;;;;;;;;;4955564;29;20386;-82
2023/06/12 20:08:54;;;;;;;55.47;25.73;;;;;;;;;;4940943;29;20059;-83
2023/06/12 20:11:39;;;;;;;52.22;26.58;;;;;;;;;;4940879;29;20434;-83
2023/06/12 20:14:26;;;;;;;53.47;25.98;;;;;;;;;;4955242;29;20048;-82
2023/06/12 20:17:11;;;;;;;50.63;25.02;;;;;;;;;;4954914;29;20043;-83
2023/06/12 20:19:56;;;;;;;51.22;26.45;;;;;;;;;;4955557;29;20047;-85
2023/06/12 20:22:46;;;;;;;57.35;26.48;;;;;;;;;;4955064;29;20517;-82
2023/06/12 20:25:32;;;;;;;56.13;26.98;;;;;;;;;;4955712;29;20047;-81
2023/06/12 20:28:19;;;;;;;57.25;26.15;;;;;;;;;;4955336;29;20043;-82
2023/06/12 20:31:05;;;;;;;58.53;26.88;;;;;;;;;;4955278;29;20047;-82
2023/06/12 20:33:51;;;;;;;57.28;25.90;;;;;;;;;;4955403;29;20051;-80
2023/06/12 20:36:50;;;;;;;58.78;26.73;;;;;;;;;;4956584;28;20051;-82
2023/06/12 20:39:35;;;;;;;56.13;26.67;;;;;;;;;;4950290;28;20043;-82
2023/06/12 20:42:21;;;;;;;58.92;25.98;;;;;;;;;;4958380;29;20493;-81
2023/06/12 20:45:08;;;;;;;65.03;26.67;;;;;;;;;;4958715;29;20051;-82
2023/06/12 20:47:53;;;;;;;67.95;28.13;;;;;;;;;;4958339;29;20055;-83
2023/06/12 20:50:40;;;;;;;61.33;27.20;;;;;;;;;;4964684;28;20473;-84
2023/06/12 20:53:27;;;;;;;58.00;26.05;;;;;;;;;;4957714;29;20039;-82
2023/06/12 20:56:14;;;;;;;55.42;25.45;;;;;;;;;;4944265;29;20051;-84
2023/06/12 20:59:01;;;;;;;59.05;25.92;;;;;;;;;;4944505;29;20047;-84